Webcam

2019/08/23 07:20 EBBR 230720Z VRB02KT CAVOK 17/13 Q1026 NOSIG

Webcam

--- Refresh now ---